createdAt,value
2019-02-20T00:00:27.646Z,99910.80
2019-02-20T00:00:58.976Z,99916.85
2019-02-20T00:01:30.265Z,99920.72
2019-02-20T00:02:01.571Z,99916.86
2019-02-20T00:02:32.861Z,99914.71
2019-02-20T00:03:04.173Z,99922.45
2019-02-20T00:03:35.496Z,99918.59
2019-02-20T00:04:06.702Z,99914.69
2019-02-20T00:04:37.995Z,99921.17
2019-02-20T00:05:09.360Z,99913.42
2019-02-20T00:05:40.668Z,99912.13
2019-02-20T00:06:11.950Z,99917.73
2019-02-20T00:06:43.243Z,99922.90
2019-02-20T00:07:14.539Z,99919.44
2019-02-20T00:07:45.830Z,99919.45
2019-02-20T00:08:17.103Z,99922.02
2019-02-20T00:08:48.421Z,99920.31
2019-02-20T00:09:19.719Z,99916.86
2019-02-20T00:09:51.017Z,99920.75
2019-02-20T00:10:22.362Z,99921.59
2019-02-20T00:10:53.645Z,99922.02
2019-02-20T00:11:24.944Z,99922.03
2019-02-20T00:11:56.230Z,99927.18
2019-02-20T00:12:27.524Z,99922.00
2019-02-20T00:12:58.835Z,99918.55
2019-02-20T00:13:30.134Z,99921.56
2019-02-20T00:14:01.454Z,99918.97
2019-02-20T00:14:32.756Z,99925.40
2019-02-20T00:15:04.095Z,99920.23
2019-02-20T00:15:35.409Z,99919.36
2019-02-20T00:16:06.763Z,99922.77
2019-02-20T00:16:38.034Z,99917.57
2019-02-20T00:17:09.353Z,99921.88
2019-02-20T00:17:40.650Z,99921.88
2019-02-20T00:18:11.946Z,99925.31
2019-02-20T00:18:43.247Z,99924.02
2019-02-20T00:19:14.541Z,99927.45
2019-02-20T00:19:45.879Z,99922.73
2019-02-20T00:20:17.176Z,99923.59
2019-02-20T00:20:48.471Z,99920.13
2019-02-20T00:21:19.806Z,99920.98
2019-02-20T00:21:51.119Z,99926.14
2019-02-20T00:22:22.409Z,99924.41
2019-02-20T00:22:53.702Z,99920.98
2019-02-20T00:23:25.068Z,99918.84
2019-02-20T00:23:56.359Z,99916.67
2019-02-20T00:24:27.692Z,99917.56
2019-02-20T00:24:58.982Z,99915.39
2019-02-20T00:25:30.254Z,99918.38
2019-02-20T00:26:01.551Z,99914.08
2019-02-20T00:26:32.825Z,99911.91
2019-02-20T00:27:04.133Z,99922.23
2019-02-20T00:27:35.410Z,99915.74
2019-02-20T00:28:06.707Z,99920.06
2019-02-20T00:28:38.044Z,99915.31
2019-02-20T00:29:09.362Z,99912.29
2019-02-20T00:29:40.739Z,99915.72
2019-02-20T00:30:12.037Z,99915.72
2019-02-20T00:30:43.331Z,99911.41
2019-02-20T00:31:14.626Z,99916.54
2019-02-20T00:31:45.991Z,99914.41
2019-02-20T00:32:17.276Z,99912.23
2019-02-20T00:32:48.629Z,99910.09
2019-02-20T00:33:19.960Z,99912.67
2019-02-20T00:33:51.257Z,99913.52
2019-02-20T00:34:22.579Z,99913.11
2019-02-20T00:34:53.858Z,99911.38
2019-02-20T00:35:25.146Z,99915.69
2019-02-20T00:35:56.431Z,99914.84
2019-02-20T00:36:27.748Z,99913.52
2019-02-20T00:36:59.049Z,99913.08
2019-02-20T00:37:30.350Z,99908.80
2019-02-20T00:38:01.708Z,99908.36
2019-02-20T00:38:33.010Z,99914.78
2019-02-20T00:39:04.281Z,99913.92
2019-02-20T00:39:35.572Z,99911.76
2019-02-20T00:40:06.910Z,99916.47
2019-02-20T00:40:38.260Z,99915.18
2019-02-20T00:41:09.570Z,99913.05
2019-02-20T00:41:40.875Z,99910.47
2019-02-20T00:42:12.158Z,99912.60
2019-02-20T00:42:43.509Z,99909.58
2019-02-20T00:43:14.857Z,99910.44
2019-02-20T00:43:46.153Z,99908.73
2019-02-20T00:44:17.445Z,99919.02
2019-02-20T00:44:48.730Z,99914.70
2019-02-20T00:45:20.081Z,99910.36
2019-02-20T00:45:51.365Z,99912.97
2019-02-20T00:46:22.681Z,99915.95
2019-02-20T00:46:53.954Z,99911.65
2019-02-20T00:47:25.233Z,99914.67
2019-02-20T00:47:56.570Z,99909.95
2019-02-20T00:48:27.889Z,99915.95
2019-02-20T00:48:59.233Z,99914.23
2019-02-20T00:49:30.559Z,99918.97
2019-02-20T00:50:01.912Z,99917.24
2019-02-20T00:50:33.263Z,99910.39
2019-02-20T00:51:04.568Z,99912.97
2019-02-20T00:51:35.872Z,99910.39
2019-02-20T00:52:07.185Z,99908.22
2019-02-20T00:52:38.568Z,99913.82
2019-02-20T00:53:09.838Z,99904.84
2019-02-20T00:53:41.150Z,99908.26
2019-02-20T00:54:12.443Z,99912.09
2019-02-20T00:54:43.755Z,99908.27
2019-02-20T00:55:15.052Z,99901.81
2019-02-20T00:55:46.406Z,99910.84
2019-02-20T00:56:17.704Z,99898.36
2019-02-20T00:56:49.004Z,99906.53
2019-02-20T00:57:20.314Z,99901.81
2019-02-20T00:57:51.616Z,99904.84
2019-02-20T00:58:22.915Z,99894.97
2019-02-20T00:58:54.202Z,99901.41
2019-02-20T00:59:25.538Z,99900.97
2019-02-20T00:59:56.840Z,99901.85
2019-02-20T01:00:28.172Z,99899.68
2019-02-20T01:00:59.482Z,99899.72
2019-02-20T01:01:30.798Z,99898.45
2019-02-20T01:02:02.108Z,99895.88
2019-02-20T01:02:33.410Z,99893.30
2019-02-20T01:03:04.710Z,99895.88
2019-02-20T01:03:36.075Z,99892.02
2019-02-20T01:04:07.387Z,99899.72
2019-02-20T01:04:38.683Z,99898.42
2019-02-20T01:05:09.995Z,99898.42
2019-02-20T01:05:41.303Z,99896.70
2019-02-20T01:06:12.594Z,99898.83
2019-02-20T01:06:45.335Z,99897.95
2019-02-20T01:07:16.719Z,99892.80
2019-02-20T01:07:48.023Z,99895.37
2019-02-20T01:08:19.311Z,99896.66
2019-02-20T01:08:50.614Z,99897.10
2019-02-20T01:09:21.911Z,99885.91
2019-02-20T01:09:53.258Z,99897.51
2019-02-20T01:10:24.592Z,99896.22
2019-02-20T01:10:55.948Z,99894.93
2019-02-20T01:11:27.268Z,99890.18
2019-02-20T01:11:58.615Z,99891.03
2019-02-20T01:12:30.180Z,99890.59
2019-02-20T01:13:01.488Z,99894.02
2019-02-20T01:13:32.880Z,99892.28
2019-02-20T01:14:04.263Z,99895.70
2019-02-20T01:14:35.614Z,99900.01
2019-02-20T01:15:06.925Z,99891.84
2019-02-20T01:15:39.296Z,99889.27
2019-02-20T01:16:10.657Z,99896.95
2019-02-20T01:16:41.944Z,99892.69
2019-02-20T01:17:13.223Z,99892.65
2019-02-20T01:17:44.518Z,99886.64
2019-02-20T01:18:15.834Z,99884.91
2019-02-20T01:18:47.109Z,99891.77
2019-02-20T01:19:18.450Z,99886.61
2019-02-20T01:19:49.728Z,99884.03
2019-02-20T01:20:21.039Z,99887.45
2019-02-20T01:20:52.408Z,99890.88
2019-02-20T01:21:23.695Z,99886.13
2019-02-20T01:21:54.984Z,99886.97
2019-02-20T01:22:26.277Z,99889.54
2019-02-20T01:22:59.821Z,99886.97
2019-02-20T01:23:30.594Z,99890.39
2019-02-20T01:24:01.901Z,99885.67
2019-02-20T01:24:34.165Z,99880.97
2019-02-20T01:25:05.376Z,99886.97
2019-02-20T01:25:36.580Z,99886.13
2019-02-20T01:26:07.850Z,99889.14
2019-02-20T01:26:39.073Z,99884.80
2019-02-20T01:27:10.272Z,99888.25
2019-02-20T01:27:41.506Z,99882.22
2019-02-20T01:28:12.739Z,99884.34
2019-02-20T01:28:43.955Z,99886.52
2019-02-20T01:29:15.194Z,99881.77
2019-02-20T01:29:46.450Z,99877.91
2019-02-20T01:30:17.665Z,99882.21
2019-02-20T01:30:48.882Z,99885.63
2019-02-20T01:31:20.130Z,99882.61
2019-02-20T01:31:51.328Z,99881.73
2019-02-20T01:32:22.538Z,99886.03
2019-02-20T01:32:53.807Z,99877.02
2019-02-20T01:33:25.035Z,99879.14
2019-02-20T01:33:57.217Z,99882.16
2019-02-20T01:34:28.433Z,99879.59
2019-02-20T01:34:59.652Z,99875.72
2019-02-20T01:35:30.861Z,99877.41
2019-02-20T01:36:02.095Z,99880.83
2019-02-20T01:36:33.313Z,99880.83
2019-02-20T01:37:04.505Z,99880.83
2019-02-20T01:37:35.779Z,99876.53
2019-02-20T01:38:06.990Z,99874.80
2019-02-20T01:38:38.192Z,99876.97
2019-02-20T01:39:09.419Z,99875.68
2019-02-20T01:39:40.700Z,99879.11
2019-02-20T01:40:11.940Z,99872.70
2019-02-20T01:40:43.158Z,99868.41
2019-02-20T01:41:14.560Z,99874.44
2019-02-20T01:41:45.732Z,99869.73
2019-02-20T01:42:16.942Z,99871.42
2019-02-20T01:42:48.164Z,99867.16
2019-02-20T01:43:19.369Z,99863.30
2019-02-20T01:43:50.751Z,99865.03
2019-02-20T01:44:21.957Z,99865.47
2019-02-20T01:44:53.218Z,99867.16
2019-02-20T01:45:24.416Z,99862.01
2019-02-20T01:45:55.655Z,99863.73
2019-02-20T01:46:26.903Z,99863.73
2019-02-20T01:46:58.077Z,99860.76
2019-02-20T01:47:29.284Z,99861.20
2019-02-20T01:48:00.505Z,99863.78
2019-02-20T01:48:31.722Z,99857.75
2019-02-20T01:49:02.923Z,99857.34
2019-02-20T01:49:34.133Z,99863.37
2019-02-20T01:50:05.379Z,99860.39
2019-02-20T01:50:36.587Z,99861.69
2019-02-20T01:51:07.780Z,99853.11
2019-02-20T01:51:38.995Z,99854.84
2019-02-20T01:52:10.206Z,99865.14
2019-02-20T01:52:41.436Z,99859.14
2019-02-20T01:53:12.644Z,99856.58
2019-02-20T01:53:43.906Z,99857.02
2019-02-20T01:54:15.166Z,99856.17
2019-02-20T01:54:46.377Z,99850.58
2019-02-20T01:55:17.615Z,99860.47
2019-02-20T01:55:48.833Z,99853.19
2019-02-20T01:56:20.033Z,99848.47
2019-02-20T01:56:51.246Z,99851.05
2019-02-20T01:57:22.464Z,99854.47
2019-02-20T01:57:53.711Z,99847.63
2019-02-20T01:58:25.015Z,99846.34
2019-02-20T01:58:56.305Z,99849.32
2019-02-20T01:59:27.515Z,99847.59
2019-02-20T01:59:58.726Z,99851.02
2019-02-20T02:00:29.938Z,99851.86
2019-02-20T02:01:01.150Z,99845.42
2019-02-20T02:01:32.362Z,99845.02
2019-02-20T02:02:03.656Z,99842.44
2019-02-20T02:02:34.953Z,99845.86
2019-02-20T02:03:06.201Z,99840.70
2019-02-20T02:03:39.086Z,99843.28
2019-02-20T02:04:10.419Z,99840.70
2019-02-20T02:04:41.680Z,99837.69
2019-02-20T02:05:15.809Z,99845.86
2019-02-20T02:05:45.919Z,99840.70
2019-02-20T02:06:17.124Z,99844.13
2019-02-20T02:06:48.337Z,99840.70
2019-02-20T02:07:19.578Z,99844.13
2019-02-20T02:07:50.787Z,99845.86
2019-02-20T02:08:22.005Z,99843.69
2019-02-20T02:08:53.213Z,99838.98
2019-02-20T02:09:24.428Z,99844.58
2019-02-20T02:09:55.739Z,99848.44
2019-02-20T02:10:26.970Z,99845.02
2019-02-20T02:10:58.188Z,99835.11
2019-02-20T02:11:29.405Z,99838.58
2019-02-20T02:12:00.637Z,99847.55
2019-02-20T02:12:31.852Z,99846.71
2019-02-20T02:13:03.069Z,99837.25
2019-02-20T02:13:34.320Z,99845.83
2019-02-20T02:14:05.575Z,99845.83
2019-02-20T02:14:36.771Z,99840.67
2019-02-20T02:15:08.035Z,99843.25
2019-02-20T02:15:39.243Z,99844.95
2019-02-20T02:16:10.470Z,99847.08
2019-02-20T02:16:41.694Z,99849.66
2019-02-20T02:17:12.947Z,99851.38
2019-02-20T02:17:44.192Z,99845.79
2019-02-20T02:18:15.408Z,99845.34
2019-02-20T02:18:46.636Z,99843.21
2019-02-20T02:19:17.834Z,99844.05
2019-02-20T02:19:49.046Z,99847.92
2019-02-20T02:20:20.308Z,99852.19
2019-02-20T02:20:51.579Z,99842.69
2019-02-20T02:21:22.784Z,99846.11
2019-02-20T02:21:54.007Z,99843.09
2019-02-20T02:22:25.230Z,99849.13
2019-02-20T02:22:56.449Z,99847.41
2019-02-20T02:23:27.651Z,99845.70
2019-02-20T02:23:58.893Z,99843.54
2019-02-20T02:24:30.134Z,99843.54
2019-02-20T02:25:01.344Z,99846.55
2019-02-20T02:25:32.548Z,99850.42
2019-02-20T02:26:10.622Z,99849.17
2019-02-20T02:26:36.735Z,99847.88
2019-02-20T02:27:07.976Z,99846.16
2019-02-20T02:27:39.222Z,99848.73
2019-02-20T02:28:10.451Z,99852.59
2019-02-20T02:28:41.666Z,99845.75
2019-02-20T02:29:12.859Z,99851.30
2019-02-20T02:29:44.082Z,99848.73
2019-02-20T02:30:15.301Z,99850.05
2019-02-20T02:30:46.560Z,99843.61
2019-02-20T02:31:17.802Z,99850.91
2019-02-20T02:31:49.009Z,99846.63
2019-02-20T02:32:20.223Z,99847.48
2019-02-20T02:32:51.487Z,99847.48
2019-02-20T02:33:22.690Z,99850.05
2019-02-20T02:33:53.930Z,99847.92
2019-02-20T02:34:25.188Z,99840.63
2019-02-20T02:34:56.380Z,99844.06
2019-02-20T02:35:27.602Z,99842.77
2019-02-20T02:35:58.894Z,99846.19
2019-02-20T02:36:30.093Z,99847.89
2019-02-20T02:37:01.304Z,99844.02
2019-02-20T02:37:32.508Z,99841.45
2019-02-20T02:38:03.711Z,99846.19
2019-02-20T02:38:34.929Z,99844.02
2019-02-20T02:39:06.152Z,99840.59
2019-02-20T02:39:37.364Z,99843.58
2019-02-20T02:40:08.653Z,99843.58
2019-02-20T02:40:39.865Z,99842.73
2019-02-20T02:41:11.121Z,99838.86
2019-02-20T02:41:44.699Z,99839.27
2019-02-20T02:42:15.295Z,99842.25
2019-02-20T02:42:46.504Z,99832.80
2019-02-20T02:43:17.715Z,99832.83
2019-02-20T02:43:48.964Z,99833.23
2019-02-20T02:44:20.201Z,99838.83
2019-02-20T02:44:51.467Z,99844.38
2019-02-20T02:45:22.742Z,99839.23
2019-02-20T02:45:53.947Z,99841.36
2019-02-20T02:46:25.150Z,99835.77
2019-02-20T02:46:56.369Z,99838.79
2019-02-20T02:47:27.599Z,99841.77
2019-02-20T02:47:58.834Z,99840.07
2019-02-20T02:48:30.026Z,99835.77
2019-02-20T02:49:01.261Z,99839.19
2019-02-20T02:49:32.464Z,99835.33
2019-02-20T02:50:03.685Z,99837.50
2019-02-20T02:50:34.882Z,99835.33
2019-02-20T02:51:06.158Z,99839.63
2019-02-20T02:51:37.375Z,99835.33
2019-02-20T02:52:08.583Z,99835.73
2019-02-20T02:52:39.795Z,99840.03
2019-02-20T02:53:11.065Z,99841.31
2019-02-20T02:53:42.280Z,99837.86
2019-02-20T02:54:13.479Z,99834.44
2019-02-20T02:54:44.698Z,99837.86
2019-02-20T02:55:15.985Z,99836.16
2019-02-20T02:55:47.202Z,99836.61
2019-02-20T02:56:18.411Z,99835.73
2019-02-20T02:56:49.624Z,99835.32
2019-02-20T02:57:20.889Z,99833.15
2019-02-20T02:57:52.103Z,99832.70
2019-02-20T02:58:23.363Z,99832.70
2019-02-20T02:58:54.573Z,99835.73
2019-02-20T02:59:25.787Z,99834.03
2019-02-20T02:59:57.002Z,99833.59
2019-02-20T03:00:28.207Z,99831.02
2019-02-20T03:00:59.461Z,99831.42
2019-02-20T03:01:30.684Z,99828.84
2019-02-20T03:02:01.897Z,99833.99
2019-02-20T03:02:33.094Z,99832.75
2019-02-20T03:03:04.314Z,99831.45
2019-02-20T03:03:35.584Z,99837.89
2019-02-20T03:04:06.817Z,99833.59
2019-02-20T03:04:38.053Z,99832.30
2019-02-20T03:05:09.243Z,99830.17
2019-02-20T03:05:40.458Z,99833.55
2019-02-20T03:06:11.661Z,99833.59
2019-02-20T03:06:42.879Z,99834.44
2019-02-20T03:07:14.086Z,99832.75
2019-02-20T03:07:45.326Z,99831.87
2019-02-20T03:08:16.540Z,99830.17
2019-02-20T03:08:47.744Z,99833.19
2019-02-20T03:09:18.966Z,99831.91
2019-02-20T03:09:50.246Z,99832.34
2019-02-20T03:10:21.438Z,99836.25
2019-02-20T03:10:52.648Z,99831.95
2019-02-20T03:11:23.921Z,99831.55
2019-02-20T03:11:55.173Z,99835.00
2019-02-20T03:12:26.405Z,99833.27
2019-02-20T03:12:57.663Z,99829.86
2019-02-20T03:13:28.868Z,99829.01
2019-02-20T03:14:00.125Z,99825.14
2019-02-20T03:14:31.839Z,99827.28
2019-02-20T03:15:03.067Z,99832.47
2019-02-20T03:15:34.316Z,99827.31
2019-02-20T03:16:05.521Z,99826.88
2019-02-20T03:16:36.735Z,99829.45
2019-02-20T03:17:07.958Z,99829.89
2019-02-20T03:17:39.154Z,99822.60
2019-02-20T03:18:10.429Z,99829.89
2019-02-20T03:18:41.628Z,99829.05
2019-02-20T03:19:12.852Z,99832.91
2019-02-20T03:19:44.076Z,99832.06
2019-02-20T03:20:15.386Z,99833.34
2019-02-20T03:20:46.626Z,99832.47
2019-02-20T03:21:17.971Z,99829.48
2019-02-20T03:21:49.274Z,99830.77
2019-02-20T03:22:20.483Z,99835.92
2019-02-20T03:22:51.781Z,99830.33
2019-02-20T03:23:23.031Z,99837.62
2019-02-20T03:23:54.232Z,99832.06
2019-02-20T03:24:25.496Z,99832.06
2019-02-20T03:24:56.686Z,99831.66
2019-02-20T03:25:27.900Z,99829.08
2019-02-20T03:25:59.180Z,99830.37
2019-02-20T03:26:30.518Z,99833.83
2019-02-20T03:27:01.778Z,99839.42
2019-02-20T03:27:33.012Z,99834.70
2019-02-20T03:28:04.233Z,99837.69
2019-02-20T03:28:35.435Z,99831.25
2019-02-20T03:29:06.681Z,99836.41
2019-02-20T03:29:37.897Z,99838.09
2019-02-20T03:30:09.118Z,99835.52
2019-02-20T03:30:40.422Z,99832.94
2019-02-20T03:31:11.631Z,99839.34
2019-02-20T03:31:42.828Z,99837.62
2019-02-20T03:32:14.148Z,99838.91
2019-02-20T03:32:45.450Z,99838.91
2019-02-20T03:33:16.649Z,99841.08
2019-02-20T03:33:47.866Z,99841.08
2019-02-20T03:34:19.108Z,99838.47
2019-02-20T03:34:50.297Z,99836.33
2019-02-20T03:35:21.519Z,99839.34
2019-02-20T03:35:52.709Z,99838.06
2019-02-20T03:36:23.918Z,99840.63
2019-02-20T03:36:55.130Z,99839.31
2019-02-20T03:37:26.349Z,99844.02
2019-02-20T03:37:57.615Z,99844.02
2019-02-20T03:38:30.527Z,99842.28
2019-02-20T03:39:01.774Z,99834.97
2019-02-20T03:39:32.971Z,99840.12
2019-02-20T03:40:04.257Z,99841.00
2019-02-20T03:40:35.498Z,99835.84
2019-02-20T03:41:06.773Z,99835.41
2019-02-20T03:41:38.032Z,99837.98
2019-02-20T03:42:09.251Z,99838.42
2019-02-20T03:42:40.460Z,99837.98
2019-02-20T03:43:11.664Z,99838.42
2019-02-20T03:43:42.916Z,99838.87
2019-02-20T03:44:14.167Z,99836.30
2019-02-20T03:44:45.381Z,99835.45
2019-02-20T03:45:16.591Z,99831.58
2019-02-20T03:45:47.834Z,99829.86
2019-02-20T03:46:19.050Z,99832.02
2019-02-20T03:46:50.287Z,99832.47
2019-02-20T03:47:21.496Z,99829.45
2019-02-20T03:47:52.700Z,99833.31
2019-02-20T03:48:23.897Z,99831.98
2019-02-20T03:48:55.105Z,99830.70
2019-02-20T03:49:26.356Z,99831.58
2019-02-20T03:49:57.557Z,99828.56
2019-02-20T03:50:28.810Z,99825.99
2019-02-20T03:51:00.175Z,99824.27
2019-02-20T03:51:31.392Z,99816.97
2019-02-20T03:52:02.607Z,99821.24
2019-02-20T03:52:36.598Z,99823.38
2019-02-20T03:53:07.823Z,99833.67
2019-02-20T03:53:39.035Z,99829.81
2019-02-20T03:54:10.295Z,99823.38
2019-02-20T03:54:41.524Z,99824.26
2019-02-20T03:55:12.738Z,99821.24
2019-02-20T03:55:43.946Z,99823.82
2019-02-20T03:56:15.164Z,99827.68
2019-02-20T03:56:46.368Z,99825.98
2019-02-20T03:57:17.649Z,99824.26
2019-02-20T03:57:48.860Z,99821.69
2019-02-20T03:58:20.073Z,99824.26
2019-02-20T03:58:51.276Z,99826.84
2019-02-20T03:59:22.529Z,99826.84
2019-02-20T03:59:53.781Z,99823.41
2019-02-20T04:00:24.993Z,99832.42
2019-02-20T04:00:56.220Z,99831.55
2019-02-20T04:01:27.435Z,99822.09
2019-02-20T04:01:58.626Z,99832.83
2019-02-20T04:02:29.931Z,99827.27
2019-02-20T04:03:01.153Z,99826.39
2019-02-20T04:03:32.361Z,99822.53
2019-02-20T04:04:03.590Z,99825.11
2019-02-20T04:04:34.833Z,99822.53
2019-02-20T04:05:06.077Z,99821.69
2019-02-20T04:05:37.310Z,99817.41
2019-02-20T04:06:08.526Z,99823.41
2019-02-20T04:06:39.813Z,99819.55
2019-02-20T04:07:11.018Z,99821.28
2019-02-20T04:07:42.237Z,99824.26
2019-02-20T04:08:13.435Z,99825.98
2019-02-20T04:08:44.683Z,99821.69
2019-02-20T04:09:15.866Z,99819.11
2019-02-20T04:09:47.079Z,99819.95
2019-02-20T04:10:18.294Z,99814.84
2019-02-20T04:10:49.494Z,99817.82
2019-02-20T04:11:20.769Z,99814.84
2019-02-20T04:11:52.053Z,99821.28
2019-02-20T04:12:23.268Z,99813.95
2019-02-20T04:12:54.494Z,99816.53
2019-02-20T04:13:25.695Z,99818.67
2019-02-20T04:13:57.222Z,99819.11
2019-02-20T04:14:28.434Z,99819.95
2019-02-20T04:15:00.654Z,99813.11
2019-02-20T04:15:31.871Z,99814.40
2019-02-20T04:16:03.082Z,99817.82
2019-02-20T04:16:34.307Z,99809.25
2019-02-20T04:17:05.544Z,99816.13
2019-02-20T04:17:36.756Z,99805.83
2019-02-20T04:18:07.976Z,99800.67
2019-02-20T04:18:39.193Z,99807.99
2019-02-20T04:19:10.399Z,99810.97
2019-02-20T04:19:41.793Z,99809.72
2019-02-20T04:20:13.000Z,99805.42
2019-02-20T04:20:44.288Z,99810.57
2019-02-20T04:21:15.501Z,99808.44
2019-02-20T04:21:46.716Z,99807.59
2019-02-20T04:22:17.929Z,99802.44
2019-02-20T04:22:49.141Z,99802.87
2019-02-20T04:23:20.350Z,99808.88
2019-02-20T04:24:01.610Z,99807.18
2019-02-20T04:24:24.489Z,99804.61
2019-02-20T04:24:55.731Z,99803.72
2019-02-20T04:25:26.961Z,99800.70
2019-02-20T04:25:58.193Z,99800.70
2019-02-20T04:26:29.394Z,99799.42
2019-02-20T04:27:00.603Z,99801.14
2019-02-20T04:27:31.813Z,99805.89
2019-02-20T04:28:03.019Z,99802.03
2019-02-20T04:28:34.258Z,99798.57
2019-02-20T04:29:05.469Z,99805.02
2019-02-20T04:29:36.670Z,99802.84
2019-02-20T04:30:07.888Z,99801.99
2019-02-20T04:30:39.106Z,99804.98
2019-02-20T04:31:10.317Z,99809.72
2019-02-20T04:31:41.565Z,99805.02
2019-02-20T04:32:12.771Z,99810.16
2019-02-20T04:32:43.970Z,99806.27
2019-02-20T04:33:15.249Z,99804.98
2019-02-20T04:33:46.480Z,99804.13
2019-02-20T04:34:17.699Z,99808.40
2019-02-20T04:34:48.893Z,99807.11
2019-02-20T04:35:20.095Z,99801.96
2019-02-20T04:35:51.307Z,99808.00
2019-02-20T04:36:22.520Z,99803.28
2019-02-20T04:36:53.724Z,99802.84
2019-02-20T04:37:24.933Z,99805.42
2019-02-20T04:37:56.129Z,99803.69
2019-02-20T04:38:27.409Z,99801.55
2019-02-20T04:38:59.810Z,99804.98
2019-02-20T04:39:31.037Z,99798.13
2019-02-20T04:40:02.228Z,99799.83
2019-02-20T04:40:33.465Z,99798.09
2019-02-20T04:41:04.670Z,99797.25
2019-02-20T04:41:35.884Z,99800.23
2019-02-20T04:42:07.135Z,99797.22
2019-02-20T04:42:38.420Z,99798.06
2019-02-20T04:43:09.677Z,99794.20
2019-02-20T04:43:40.969Z,99793.76
2019-02-20T04:44:12.172Z,99797.18
2019-02-20T04:44:43.386Z,99799.75
2019-02-20T04:45:14.593Z,99795.05
2019-02-20T04:45:45.854Z,99798.02
2019-02-20T04:46:17.116Z,99797.62
2019-02-20T04:46:48.328Z,99794.60
2019-02-20T04:47:19.537Z,99796.73
2019-02-20T04:47:50.755Z,99799.31
2019-02-20T04:48:21.979Z,99792.84
2019-02-20T04:48:53.280Z,99794.13
2019-02-20T04:49:24.488Z,99795.00
2019-02-20T04:49:55.678Z,99792.84
2019-02-20T04:50:26.915Z,99796.30
2019-02-20T04:50:58.154Z,99794.13
2019-02-20T04:51:29.385Z,99796.70
2019-02-20T04:52:00.597Z,99798.83
2019-02-20T04:52:31.816Z,99805.71
2019-02-20T04:53:03.027Z,99798.39
2019-02-20T04:53:34.235Z,99804.78
2019-02-20T04:54:13.013Z,99800.92
2019-02-20T04:54:38.448Z,99802.21
2019-02-20T04:55:09.682Z,99797.47
2019-02-20T04:55:40.920Z,99797.46
2019-02-20T04:56:12.131Z,99797.45
2019-02-20T04:56:43.374Z,99795.73
2019-02-20T04:57:14.636Z,99798.30
2019-02-20T04:57:45.830Z,99797.45
2019-02-20T04:58:17.034Z,99803.89
2019-02-20T04:58:48.238Z,99800.88
2019-02-20T04:59:19.494Z,99800.88
2019-02-20T04:59:50.795Z,99794.45
2019-02-20T05:00:21.994Z,99792.31
2019-02-20T05:00:53.233Z,99794.05
2019-02-20T05:01:24.482Z,99801.77
2019-02-20T05:01:55.695Z,99795.33
2019-02-20T05:02:26.928Z,99794.48
2019-02-20T05:02:58.166Z,99796.62
2019-02-20T05:03:29.382Z,99797.47
2019-02-20T05:04:00.587Z,99794.89
2019-02-20T05:04:31.798Z,99797.02
2019-02-20T05:05:03.033Z,99793.11
2019-02-20T05:05:34.222Z,99793.56
2019-02-20T05:06:05.474Z,99796.53
2019-02-20T05:06:36.701Z,99795.69
2019-02-20T05:07:07.948Z,99794.80
2019-02-20T05:07:39.176Z,99792.66
2019-02-20T05:08:10.445Z,99797.38
2019-02-20T05:08:42.088Z,99791.78
2019-02-20T05:09:13.299Z,99793.91
2019-02-20T05:09:44.517Z,99799.05
2019-02-20T05:10:15.750Z,99798.17
2019-02-20T05:10:47.006Z,99794.75
2019-02-20T05:11:18.271Z,99793.42
2019-02-20T05:11:49.480Z,99792.57
2019-02-20T05:12:20.706Z,99792.58
2019-02-20T05:12:51.942Z,99799.01
2019-02-20T05:13:23.140Z,99798.16
2019-02-20T05:13:54.426Z,99794.30
2019-02-20T05:14:25.634Z,99794.70
2019-02-20T05:14:56.831Z,99794.30
2019-02-20T05:15:28.040Z,99796.84
2019-02-20T05:15:59.263Z,99797.28
2019-02-20T05:16:33.230Z,99801.58
2019-02-20T05:17:04.438Z,99794.70
2019-02-20T05:17:35.657Z,99798.52
2019-02-20T05:18:06.914Z,99800.25
2019-02-20T05:18:38.135Z,99800.65
2019-02-20T05:19:09.387Z,99802.38
2019-02-20T05:19:40.611Z,99801.09
2019-02-20T05:20:11.857Z,99794.66
2019-02-20T05:20:43.059Z,99803.66
2019-02-20T05:21:14.265Z,99804.51
2019-02-20T05:21:45.476Z,99804.11
2019-02-20T05:22:16.689Z,99804.55
2019-02-20T05:22:47.975Z,99800.73
2019-02-20T05:23:19.186Z,99802.91
2019-02-20T05:23:50.386Z,99807.22
2019-02-20T05:24:24.770Z,99804.69
2019-02-20T05:24:54.542Z,99804.70
2019-02-20T05:25:25.753Z,99802.57
2019-02-20T05:25:56.963Z,99803.45
2019-02-20T05:26:28.172Z,99801.77
2019-02-20T05:26:59.440Z,99807.40
2019-02-20T05:27:30.640Z,99805.27
2019-02-20T05:28:01.849Z,99800.16
2019-02-20T05:28:33.049Z,99802.77
2019-02-20T05:29:04.265Z,99805.38
2019-02-20T05:29:35.468Z,99806.30
2019-02-20T05:30:06.693Z,99805.45
2019-02-20T05:30:37.891Z,99806.33
2019-02-20T05:31:09.109Z,99807.24
2019-02-20T05:31:40.312Z,99809.81
2019-02-20T05:32:11.581Z,99807.68
2019-02-20T05:32:42.784Z,99808.15
2019-02-20T05:33:13.994Z,99804.31
2019-02-20T05:33:45.208Z,99811.63
2019-02-20T05:34:16.437Z,99803.02
2019-02-20T05:34:47.635Z,99811.63
2019-02-20T05:35:18.855Z,99815.52
2019-02-20T05:35:50.054Z,99807.81
2019-02-20T05:36:21.288Z,99812.95
2019-02-20T05:36:52.511Z,99816.84
2019-02-20T05:37:23.771Z,99815.14
2019-02-20T05:37:54.986Z,99818.19
2019-02-20T05:38:26.192Z,99819.47
2019-02-20T05:38:57.405Z,99822.48
2019-02-20T05:39:28.611Z,99818.63
2019-02-20T05:39:59.823Z,99821.23
2019-02-20T05:40:31.035Z,99819.95
2019-02-20T05:41:02.303Z,99823.83
2019-02-20T05:41:33.600Z,99823.00
2019-02-20T05:42:04.857Z,99825.13
2019-02-20T05:42:36.068Z,99822.98
2019-02-20T05:43:07.316Z,99822.56
2019-02-20T05:43:38.566Z,99830.33
2019-02-20T05:44:09.773Z,99823.84
2019-02-20T05:44:40.985Z,99822.56
2019-02-20T05:45:12.198Z,99822.56
2019-02-20T05:45:43.455Z,99826.86
2019-02-20T05:46:14.685Z,99826.44
2019-02-20T05:46:45.882Z,99829.05
2019-02-20T05:47:17.188Z,99833.34
2019-02-20T05:47:48.438Z,99834.60
2019-02-20T05:48:19.670Z,99833.76
2019-02-20T05:48:50.892Z,99829.89
2019-02-20T05:49:22.125Z,99835.47
2019-02-20T05:49:53.393Z,99836.33
2019-02-20T05:50:24.655Z,99834.18
2019-02-20T05:50:55.887Z,99836.34
2019-02-20T05:51:27.093Z,99834.63
2019-02-20T05:51:58.356Z,99833.31
2019-02-20T05:52:29.582Z,99832.45
2019-02-20T05:53:00.778Z,99833.31
2019-02-20T05:53:32.038Z,99830.73
2019-02-20T05:54:03.316Z,99833.30
2019-02-20T05:54:35.290Z,99830.31
2019-02-20T05:55:06.602Z,99831.16
2019-02-20T05:55:37.817Z,99832.89
2019-02-20T05:56:09.034Z,99831.59
2019-02-20T05:56:40.296Z,99834.59
2019-02-20T05:57:11.503Z,99831.16
2019-02-20T05:57:42.721Z,99840.20
2019-02-20T05:58:13.948Z,99837.17
2019-02-20T05:58:45.189Z,99840.64
2019-02-20T05:59:16.398Z,99838.05
2019-02-20T05:59:49.620Z,99834.61
2019-02-20T06:00:20.970Z,99843.22
2019-02-20T06:00:52.187Z,99837.62
2019-02-20T06:01:23.391Z,99839.80
2019-02-20T06:01:54.600Z,99838.48
2019-02-20T06:02:25.839Z,99839.80
2019-02-20T06:02:57.193Z,99844.52
2019-02-20T06:03:28.408Z,99844.11
2019-02-20T06:03:59.619Z,99844.11
2019-02-20T06:04:30.863Z,99847.97
2019-02-20T06:05:02.116Z,99850.98
2019-02-20T06:05:33.358Z,99845.81
2019-02-20T06:06:04.578Z,99852.70
2019-02-20T06:06:35.793Z,99848.41
2019-02-20T06:07:07.058Z,99855.71
2019-02-20T06:07:38.268Z,99854.02